Portada
METAR-TAF:

METAR-TAF

Aeroports :

Türkmenbaşy, Turkmenistan

latitud: 40-03-48N, longitud: 053-00-26E, altitud: 86 m

Observació

L'informe es va fer fa 31 minuts, a les 19:00 UTC
Vent 12 kt del Est/Nord-Est
Temperatura 15°C
Humitat 36%
Pressió 1022 hPa
Visibilitat 10 km o més
sense núvols per sota de 1500 mi sense presència de cumulonimbus.

METAR: UTAK 291900Z 07012KT CAVOK 15/M00 Q1022 R16R/CLRD70 NOSIG

Hora: 00:31 (19:31 UTC)

Pronòstic

L'informe es va fer fa 3 hores i 1 minuts, a les 16:30 UTC
Pronòstic vàlid del 29 a les 18 UTC al 30 a les 18 UTC
Vent 16 kt del Est
Visibilitat 10 km o més
sense núvols per sota de 1500 mi sense presència de cumulonimbus.
Temporalment
l' 29 a les 18 UTC al 29 a les 23 UTC
Vent 14 kt del Nord-Est
Temporalment
l' 29 a les 23 UTC al 30 a les 05 UTC
Visibilitat 10 km o més
Núvols disperses a una alçada de 3300 ft
Núvols disperses a una alçada de 10000 ft

TAF: UTAK 291630Z 2918/3018 10016KT CAVOK TEMPO 2918/2923 05014KT TEMPO 2923/3005 9999 SCT033 SCT100

Observacions i pronòstics meteorològics de més de 4000 aeroports (METAR i TAF).

Les estacions disponibles són els punts grocs i vermells al mapa.

Posi el ratolí al punt desitjat per veure el nom de l'estació.

Feu clic per veure les observacions i els pronòstics meteorològics.

Per canviar el mapa: feu clic els botons verds amb una creu de color negre per apropar; al botó verd amb un guió per allunyar la imatge; o en les fletxes verdes per a mapes adjacents.


METAR-TAF: